Time;durP1;ratioP1;P1;durP2;ratioP2;P2;SDS_P1;SDS_P2;PMS_P1;PMS_P2;Temp;Humidity;BMP_temperature;BMP_pressure;BME280_temperature;BME280_humidity;BME280_pressure;Samples;Min_cycle;Max_cycle;Signal;HPM_P1;HPM_P2
2022/05/22 00:01:50;;;;;;;3.50;1.90;;;;;;;13.28;59.97;98543.39;1711762;83;28296;-56
2022/05/22 00:04:29;;;;;;;5.35;2.22;;;;;;;13.32;59.56;98544.91;1711682;83;25512;-56
2022/05/22 00:06:56;;;;;;;4.12;2.00;;;;;;;13.33;60.29;98547.33;1711493;83;25636;-59
2022/05/22 00:09:24;;;;;;;2.85;2.00;;;;;;;13.36;60.77;98543.88;1711412;83;25740;-57
2022/05/22 00:11:51;;;;;;;2.85;1.70;;;;;;;13.35;60.43;98545.59;1709270;83;25445;-56
2022/05/22 00:14:19;;;;;;;2.77;1.77;;;;;;;13.36;60.34;98548.01;1709388;84;27380;-58
2022/05/22 00:16:46;;;;;;;3.05;2.00;;;;;;;13.41;60.21;98544.25;1709488;83;25676;-57
2022/05/22 00:19:26;;;;;;;4.90;2.00;;;;;;;13.45;60.41;98541.64;1709253;83;25463;-57
2022/05/22 00:21:53;;;;;;;2.77;1.90;;;;;;;13.47;61.12;98542.12;1709574;83;25731;-57
2022/05/22 00:24:23;;;;;;;3.37;1.80;;;;;;;13.50;60.31;98534.01;1709430;84;25629;-61
2022/05/22 00:26:50;;;;;;;3.35;2.10;;;;;;;13.56;60.30;98533.25;1709738;83;27536;-60
2022/05/22 00:29:18;;;;;;;2.98;2.10;;;;;;;13.61;60.16;98528.91;1709381;84;25631;-60
2022/05/22 00:31:45;;;;;;;5.28;2.40;;;;;;;13.63;60.11;98539.02;1709383;83;25487;-58
2022/05/22 00:34:13;;;;;;;3.95;2.33;;;;;;;13.66;60.35;98533.39;1709182;83;25901;-59
2022/05/22 00:36:47;;;;;;;5.78;2.37;;;;;;;13.63;60.18;98538.20;1709960;83;25608;-60
2022/05/22 00:39:13;;;;;;;2.52;2.20;;;;;;;13.60;60.34;98534.74;1709616;83;27389;-61
2022/05/22 00:41:40;;;;;;;4.10;2.22;;;;;;;13.57;60.64;98538.17;1709668;83;25664;-59
2022/05/22 00:44:08;;;;;;;3.17;2.40;;;;;;;13.51;60.98;98538.95;1709538;83;25671;-61
2022/05/22 00:46:35;;;;;;;3.52;2.20;;;;;;;13.48;60.71;98542.34;1709206;83;25684;-60
2022/05/22 00:49:10;;;;;;;3.10;2.12;;;;;;;13.41;60.75;98537.37;1709413;83;25467;-59
2022/05/22 00:51:45;;;;;;;3.35;2.37;;;;;;;13.36;61.61;98539.75;1709746;83;27599;-57
2022/05/22 00:54:28;;;;;;;3.83;2.35;;;;;;;13.31;61.30;98544.09;1708322;83;25704;-62
2022/05/22 00:57:00;;;;;;;3.08;2.05;;;;;;;13.22;61.99;98540.59;1709297;84;25434;-61
2022/05/22 00:59:32;;;;;;;3.25;2.27;;;;;;;13.13;62.03;98540.08;1704988;83;25785;-58
2022/05/22 01:02:00;;;;;;;3.15;2.42;;;;;;;13.04;62.06;98539.34;1709591;83;25499;-58
2022/05/22 01:04:30;;;;;;;4.35;2.27;;;;;;;12.97;62.02;98536.30;1709289;83;27530;-60
2022/05/22 01:06:57;;;;;;;6.00;2.30;;;;;;;12.92;61.99;98537.29;1709948;83;25735;-58
2022/05/22 01:09:23;;;;;;;3.20;2.27;;;;;;;12.87;62.40;98532.79;1709610;83;25696;-60
2022/05/22 01:11:54;;;;;;;3.98;2.22;;;;;;;12.82;62.09;98529.43;1717649;83;25440;-58
2022/05/22 01:14:22;;;;;;;3.45;1.95;;;;;;;12.78;62.31;98535.59;1720204;83;25572;-60
2022/05/22 01:16:50;;;;;;;4.60;2.52;;;;;;;12.77;62.47;98536.73;1719802;83;27398;-58
2022/05/22 01:19:24;;;;;;;2.22;1.85;;;;;;;12.78;62.48;98533.43;1719727;83;25767;-57
2022/05/22 01:22:01;;;;;;;4.75;2.85;;;;;;;12.84;62.36;98534.04;1718786;83;25438;-57
2022/05/22 01:24:27;;;;;;;4.15;2.30;;;;;;;12.87;62.81;98527.88;1720168;83;25633;-59
2022/05/22 01:27:00;;;;;;;4.72;2.47;;;;;;;12.85;63.00;98524.08;1720155;83;25628;-57
2022/05/22 01:29:27;;;;;;;3.42;2.20;;;;;;;12.85;62.75;98532.33;1720061;83;27384;-56
2022/05/22 01:31:52;;;;;;;3.65;2.17;;;;;;;12.87;63.05;98532.00;1719712;83;25621;-56
2022/05/22 01:34:18;;;;;;;4.45;2.40;;;;;;;12.88;63.07;98522.60;1720349;83;25705;-56
2022/05/22 01:36:45;;;;;;;4.65;2.52;;;;;;;12.89;63.41;98519.52;1720238;83;25736;-59
2022/05/22 01:39:12;;;;;;;4.03;2.30;;;;;;;12.88;63.50;98515.17;1720272;83;25419;-57
2022/05/22 01:41:38;;;;;;;3.27;2.35;;;;;;;12.90;62.47;98516.21;1720191;82;27522;-58
2022/05/22 01:44:06;;;;;;;3.08;1.90;;;;;;;12.91;62.70;98513.69;1719719;83;26252;-56
2022/05/22 01:46:32;;;;;;;4.67;2.40;;;;;;;12.90;62.61;98514.25;1720152;83;25498;-59
2022/05/22 01:48:59;;;;;;;4.28;2.33;;;;;;;12.92;62.19;98511.98;1720094;83;25719;-58
2022/05/22 01:51:26;;;;;;;6.50;2.83;;;;;;;12.92;62.60;98515.29;1719891;83;25618;-56
2022/05/22 01:53:53;;;;;;;4.85;2.47;;;;;;;12.91;62.50;98509.00;1720050;83;28300;-57
2022/05/22 01:56:21;;;;;;;4.10;2.27;;;;;;;12.91;62.26;98520.00;1719754;83;25433;-57
2022/05/22 01:58:47;;;;;;;4.42;2.47;;;;;;;12.90;62.59;98510.71;1719879;83;25617;-56
2022/05/22 02:01:12;;;;;;;4.75;2.27;;;;;;;12.91;62.58;98512.31;1720134;83;25767;-57
2022/05/22 02:03:38;;;;;;;3.72;2.15;;;;;;;12.90;62.64;98510.13;1720219;83;25588;-57
2022/05/22 02:06:04;;;;;;;6.20;3.05;;;;;;;12.87;63.18;98510.78;1720248;83;27445;-57
2022/05/22 02:08:31;;;;;;;3.35;2.47;;;;;;;12.86;62.49;98506.44;1720327;83;25503;-59
2022/05/22 02:11:01;;;;;;;6.12;2.30;;;;;;;12.88;62.81;98507.48;1719679;83;25711;-56
2022/05/22 02:13:35;;;;;;;4.80;2.20;;;;;;;12.86;62.65;98506.44;1720237;83;26540;-57
2022/05/22 02:16:01;;;;;;;5.67;3.47;;;;;;;12.85;62.83;98504.83;1720182;83;25675;-59
2022/05/22 02:18:27;;;;;;;6.22;2.58;;;;;;;12.86;62.84;98503.69;1720134;83;27395;-56
2022/05/22 02:20:53;;;;;;;5.50;2.40;;;;;;;12.82;62.87;98501.38;1720033;83;25854;-56
2022/05/22 02:23:20;;;;;;;3.45;2.33;;;;;;;12.82;63.43;98498.63;1720154;83;25603;-57
2022/05/22 02:25:50;;;;;;;6.45;2.62;;;;;;;12.79;63.36;98497.35;1720033;83;25696;-56
2022/05/22 02:28:18;;;;;;;5.00;2.37;;;;;;;12.78;63.45;98503.19;1720182;83;32893;-58
2022/05/22 02:30:49;;;;;;;3.62;2.40;;;;;;;12.78;63.54;98505.94;1720133;83;28378;-57
2022/05/22 02:33:15;;;;;;;;;;;;;;;12.79;63.47;98503.41;1722596;83;25655;-57
2022/05/22 02:35:42;;;;;;;3.35;1.98;;;;;;;12.84;63.35;98512.83;1720141;82;25497;-56
2022/05/22 02:38:08;;;;;;;3.77;2.00;;;;;;;12.84;63.89;98499.66;1719999;83;26481;-57
2022/05/22 02:40:34;;;;;;;3.95;2.55;;;;;;;12.89;63.73;98503.58;1720140;83;25636;-57
2022/05/22 02:43:01;;;;;;;5.95;2.60;;;;;;;12.94;63.06;98499.27;1720126;83;28091;-56
2022/05/22 02:45:32;;;;;;;4.08;2.33;;;;;;;12.99;62.89;98498.27;1719910;83;25823;-57
2022/05/22 02:47:58;;;;;;;6.15;2.47;;;;;;;13.00;63.25;98495.75;1719872;83;25407;-56
2022/05/22 02:50:28;;;;;;;5.20;2.00;;;;;;;12.99;63.14;98499.09;1719713;83;25902;-56
2022/05/22 02:52:55;;;;;;;3.90;3.05;;;;;;;13.03;63.04;98497.83;1720099;83;25611;-57
2022/05/22 02:55:22;;;;;;;3.95;2.27;;;;;;;13.03;63.08;98490.95;1720118;83;27442;-56
2022/05/22 02:57:48;;;;;;;4.50;2.33;;;;;;;12.96;63.41;98497.56;1715812;83;25667;-57
2022/05/22 03:00:26;;;;;;;3.60;2.33;;;;;;;12.92;63.45;98494.66;1720266;82;25662;-59
2022/05/22 03:02:53;;;;;;;3.62;2.40;;;;;;;12.90;63.29;98496.95;1719944;83;25846;-57
2022/05/22 03:05:20;;;;;;;4.65;2.45;;;;;;;12.90;63.46;98496.95;1720065;83;25735;-59
2022/05/22 03:07:47;;;;;;;4.22;2.47;;;;;;;12.89;64.17;98496.14;1720094;83;27477;-57
2022/05/22 03:10:17;;;;;;;4.12;2.67;;;;;;;12.87;64.13;98496.25;1719594;83;25600;-57
2022/05/22 03:12:44;;;;;;;3.85;2.40;;;;;;;12.86;63.82;98498.74;1712837;83;25492;-59
2022/05/22 03:15:13;;;;;;;5.20;2.67;;;;;;;12.88;63.88;98494.54;1711732;83;25762;-57
2022/05/22 03:17:39;;;;;;;6.17;2.40;;;;;;;12.89;63.92;98489.83;1711664;83;25670;-58
2022/05/22 03:20:08;;;;;;;5.03;2.47;;;;;;;12.88;63.85;98495.91;1711595;83;27483;-59
2022/05/22 03:22:34;;;;;;;2.80;2.08;;;;;;;12.88;64.10;98492.35;1711423;83;25636;-59
2022/05/22 03:25:01;;;;;;;3.52;2.55;;;;;;;12.84;64.02;98491.41;1711666;83;25671;-58
2022/05/22 03:27:27;;;;;;;4.53;2.77;;;;;;;12.86;64.23;98494.62;1711801;83;25962;-60
2022/05/22 03:29:52;;;;;;;4.83;2.47;;;;;;;12.88;63.78;98492.35;1711937;83;25597;-58
2022/05/22 03:32:18;;;;;;;4.05;2.15;;;;;;;12.90;64.30;98499.70;1711849;83;28279;-61
2022/05/22 03:34:44;;;;;;;5.70;2.17;;;;;;;12.96;64.30;98490.13;1711488;83;25830;-58
2022/05/22 03:37:12;;;;;;;4.35;2.27;;;;;;;13.05;64.24;98487.31;1711849;83;25651;-60
2022/05/22 03:39:38;;;;;;;3.55;2.27;;;;;;;13.18;63.96;98490.36;1711465;83;25920;-61
2022/05/22 03:42:05;;;;;;;5.37;2.50;;;;;;;13.31;64.24;98480.80;1711810;83;25684;-62
2022/05/22 03:44:31;;;;;;;3.62;2.30;;;;;;;13.46;63.72;98480.75;1711765;83;26948;-58
2022/05/22 03:46:57;;;;;;;4.20;2.42;;;;;;;13.54;63.63;98488.16;1711616;83;25603;-62
2022/05/22 03:49:23;;;;;;;4.65;2.47;;;;;;;13.62;63.71;98493.33;1711801;83;25680;-62
2022/05/22 03:51:49;;;;;;;3.47;2.55;;;;;;;13.73;63.11;98497.06;1711429;83;25740;-60
2022/05/22 03:54:15;;;;;;;4.50;2.70;;;;;;;13.87;63.08;98498.12;1711928;83;25430;-58
2022/05/22 03:56:42;;;;;;;4.40;2.30;;;;;;;13.89;62.92;98497.21;1711745;83;28231;-58
2022/05/22 03:59:08;;;;;;;4.03;2.60;;;;;;;13.94;62.88;98494.26;1711652;83;25738;-60
2022/05/22 04:01:35;;;;;;;4.35;2.33;;;;;;;14.05;62.86;98497.38;1711442;83;25700;-59
2022/05/22 04:04:01;;;;;;;5.42;2.40;;;;;;;14.11;62.90;98502.91;1711701;83;25740;-59
2022/05/22 04:06:26;;;;;;;3.47;2.08;;;;;;;14.19;62.43;98499.80;1711905;83;25518;-60
2022/05/22 04:08:52;;;;;;;4.33;2.15;;;;;;;14.26;62.00;98495.92;1711943;83;27398;-59
2022/05/22 04:11:20;;;;;;;6.42;2.40;;;;;;;14.36;61.70;98500.17;1711555;83;25449;-58
2022/05/22 04:13:47;;;;;;;3.62;2.30;;;;;;;14.41;62.16;98496.38;1711808;83;25451;-59
2022/05/22 04:16:14;;;;;;;3.60;2.20;;;;;;;14.49;61.89;98497.42;1711763;83;25921;-59
2022/05/22 04:18:41;;;;;;;3.58;2.00;;;;;;;14.55;61.29;98494.67;1711823;83;25691;-57
2022/05/22 04:21:09;;;;;;;3.87;2.40;;;;;;;14.71;60.97;98483.73;1711690;83;27940;-60
2022/05/22 04:26:20;;;;;;;4.60;2.12;;;;;;;14.81;60.73;98492.16;1711784;83;25663;-57
2022/05/22 04:28:46;;;;;;;5.20;2.02;;;;;;;14.92;60.74;98491.93;1711783;83;25727;-61
2022/05/22 04:31:12;;;;;;;3.42;2.02;;;;;;;15.09;60.15;98498.91;1711885;83;25643;-59
2022/05/22 04:33:37;;;;;;;2.85;1.92;;;;;;;15.20;60.15;98486.81;1711753;83;27456;-58
2022/05/22 04:36:04;;;;;;;4.83;2.22;;;;;;;15.41;59.56;98487.44;1711821;83;25793;-59
2022/05/22 04:38:30;;;;;;;2.70;2.00;;;;;;;15.58;59.24;98485.53;1711902;83;25636;-59
2022/05/22 04:41:00;;;;;;;4.22;2.00;;;;;;;15.68;58.76;98482.25;1711890;83;25750;-61
2022/05/22 04:43:28;;;;;;;4.58;2.00;;;;;;;15.70;57.98;98481.09;1711868;83;25633;-59
2022/05/22 04:45:55;;;;;;;5.42;2.30;;;;;;;15.71;57.99;98484.09;1711914;83;28274;-58
2022/05/22 04:48:23;;;;;;;4.65;2.08;;;;;;;15.65;57.48;98484.34;1711754;83;25744;-58
2022/05/22 04:50:52;;;;;;;4.20;2.02;;;;;;;15.60;57.82;98484.58;1711897;83;25627;-58
2022/05/22 04:53:22;;;;;;;3.87;2.10;;;;;;;15.53;57.87;98482.44;1712025;83;25826;-58
2022/05/22 04:55:48;;;;;;;5.62;2.20;;;;;;;15.52;58.22;98483.58;1712157;83;25591;-58
2022/05/22 04:58:16;;;;;;;4.50;1.95;;;;;;;15.52;58.42;98487.72;1711793;83;28298;-58
2022/05/22 05:00:42;;;;;;;4.35;2.30;;;;;;;15.53;58.21;98486.58;1711083;83;25344;-59
2022/05/22 05:03:08;;;;;;;2.70;1.80;;;;;;;15.46;58.33;98477.29;1712007;83;25715;-57
2022/05/22 05:05:35;;;;;;;4.65;2.40;;;;;;;15.40;58.22;98484.43;1711978;83;26634;-57
2022/05/22 05:08:01;;;;;;;2.65;1.82;;;;;;;15.31;58.37;98483.77;1711977;83;25503;-58
2022/05/22 05:10:27;;;;;;;3.42;1.80;;;;;;;15.25;58.08;98489.30;1711823;83;28275;-60
2022/05/22 05:12:54;;;;;;;4.80;1.65;;;;;;;15.22;58.30;98495.52;1716845;83;25604;-59
2022/05/22 05:15:24;;;;;;;3.37;1.70;;;;;;;15.22;58.06;98490.81;1720103;83;25747;-60
2022/05/22 05:17:51;;;;;;;5.05;1.90;;;;;;;15.21;58.25;98491.98;1720123;82;25700;-59
2022/05/22 05:20:23;;;;;;;3.00;1.65;;;;;;;15.23;58.00;98498.53;1716026;83;26488;-61
2022/05/22 05:22:48;;;;;;;2.92;1.40;;;;;;;15.30;58.71;98499.55;1725449;83;25742;-58
2022/05/22 05:25:14;;;;;;;4.97;1.45;;;;;;;15.38;57.84;98499.75;1729426;83;25507;-59
2022/05/22 05:27:40;;;;;;;6.15;1.82;;;;;;;15.42;57.72;98502.03;1729391;83;25689;-60
2022/05/22 05:30:08;;;;;;;3.92;1.90;;;;;;;15.42;57.71;98495.12;1729378;83;25703;-58
2022/05/22 05:32:34;;;;;;;4.47;1.80;;;;;;;15.47;57.73;98503.73;1729512;83;25484;-59
2022/05/22 05:35:06;;;;;;;3.22;1.57;;;;;;;15.47;57.59;98501.80;1729515;82;27393;-58
2022/05/22 05:37:36;;;;;;;4.75;1.80;;;;;;;15.54;58.26;98503.94;1729434;83;25607;-60
2022/05/22 05:40:03;;;;;;;2.15;1.47;;;;;;;15.65;58.08;98494.01;1729423;82;25605;-60
2022/05/22 05:42:35;;;;;;;9.58;1.90;;;;;;;15.76;58.45;98491.55;1727777;82;25694;-62
2022/05/22 05:45:05;;;;;;;3.55;1.70;;;;;;;15.90;58.42;98491.13;1729482;83;25615;-61
2022/05/22 05:47:32;;;;;;;3.27;1.55;;;;;;;16.03;57.97;98490.50;1727634;83;27513;-57
2022/05/22 05:49:58;;;;;;;3.22;1.70;;;;;;;16.16;57.49;98493.19;1729368;83;25832;-59
2022/05/22 05:52:24;;;;;;;5.90;1.95;;;;;;;16.36;57.16;98489.13;1729292;82;25731;-59
2022/05/22 05:54:49;;;;;;;3.55;1.80;;;;;;;16.54;57.28;98486.23;1729563;83;25760;-58
2022/05/22 05:57:16;;;;;;;4.20;1.95;;;;;;;16.67;56.43;98490.28;1730083;82;25502;-62
2022/05/22 05:59:43;;;;;;;4.53;1.92;;;;;;;16.83;56.41;98490.81;1729537;83;27428;-58
2022/05/22 06:02:15;;;;;;;2.72;1.70;;;;;;;16.90;55.59;98495.16;1729347;82;25612;-58
2022/05/22 06:04:41;;;;;;;5.70;1.98;;;;;;;16.93;55.07;98487.52;1729097;83;25703;-58
2022/05/22 06:07:09;;;;;;;5.85;2.15;;;;;;;16.86;55.19;98492.86;1728990;83;25766;-60
2022/05/22 06:09:36;;;;;;;2.72;1.57;;;;;;;16.83;56.26;98487.48;1729379;83;25678;-59
2022/05/22 06:12:04;;;;;;;3.55;1.72;;;;;;;17.02;55.90;98488.69;1731220;81;27413;-59
2022/05/22 06:14:30;;;;;;;3.22;1.60;;;;;;;17.25;55.33;98482.48;1740925;82;25635;-59
2022/05/22 06:16:57;;;;;;;4.10;2.15;;;;;;;17.46;54.99;98485.46;1741011;81;25449;-59
2022/05/22 06:22:08;;;;;;;4.12;1.40;;;;;;;17.76;53.20;98488.44;1740596;82;25735;-60
2022/05/22 06:24:36;;;;;;;2.70;1.40;;;;;;;17.80;52.95;98496.25;1740998;81;27412;-59
2022/05/22 06:27:04;;;;;;;2.50;1.40;;;;;;;17.91;53.24;98485.95;1740898;82;25805;-58
2022/05/22 06:29:30;;;;;;;1.75;1.10;;;;;;;18.14;52.05;98483.80;1740920;81;25646;-63
2022/05/22 06:31:57;;;;;;;2.65;1.20;;;;;;;18.29;50.91;98489.82;1741055;81;25893;-58
2022/05/22 06:34:23;;;;;;;2.95;1.20;;;;;;;18.47;50.31;98486.52;1740622;82;25419;-60
2022/05/22 06:36:51;;;;;;;2.60;1.40;;;;;;;18.36;49.21;98482.80;1740778;82;27771;-59
2022/05/22 06:42:59;;;;;;;3.27;1.32;;;;;;;18.66;49.58;98477.33;1740523;82;25501;-61
2022/05/22 06:44:39;;;;;;;4.92;1.50;;;;;;;18.77;47.71;98481.63;1733152;82;25417;-59
2022/05/22 06:47:06;;;;;;;3.50;1.30;;;;;;;18.63;48.46;98483.63;1741114;82;25579;-57
2022/05/22 06:49:32;;;;;;;2.17;0.95;;;;;;;18.65;49.46;98483.25;1740781;82;27568;-61
2022/05/22 06:51:58;;;;;;;2.72;0.98;;;;;;;18.70;47.47;98494.02;1740466;82;25645;-59
2022/05/22 06:54:25;;;;;;;1.80;0.85;;;;;;;18.69;47.55;98489.04;1740639;82;25676;-58
2022/05/22 06:56:51;;;;;;;1.75;0.82;;;;;;;18.67;47.43;98487.83;1740959;81;25881;-60
2022/05/22 06:59:17;;;;;;;2.25;1.12;;;;;;;18.61;47.24;98492.09;1740733;81;25420;-58
2022/05/22 07:01:44;;;;;;;2.72;1.05;;;;;;;18.43;46.63;98495.39;1740946;82;27620;-58
2022/05/22 07:04:10;;;;;;;3.37;1.07;;;;;;;18.33;47.39;98499.56;1740611;82;25420;-58
2022/05/22 07:06:36;;;;;;;4.28;1.12;;;;;;;18.16;47.21;98487.80;1741089;82;25493;-61
2022/05/22 07:09:03;;;;;;;3.55;1.00;;;;;;;18.22;46.08;98492.45;1740824;82;26740;-61
2022/05/22 07:11:40;;;;;;;2.52;0.95;;;;;;;18.34;46.09;98501.19;1740623;82;25618;-59
2022/05/22 07:14:06;;;;;;;1.30;1.00;;;;;;;18.34;46.77;98497.61;1739779;82;26853;-57
2022/05/22 07:16:35;;;;;;;2.95;1.40;;;;;;;18.38;47.01;98503.44;1740870;82;25613;-58
2022/05/22 07:19:03;;;;;;;3.12;1.25;;;;;;;18.39;47.82;98502.86;1740757;82;25489;-58
2022/05/22 07:21:29;;;;;;;3.37;1.30;;;;;;;18.43;48.17;98503.10;1740811;82;25770;-58
2022/05/22 07:23:55;;;;;;;2.02;1.40;;;;;;;18.47;48.52;98510.69;1740979;81;25661;-60
2022/05/22 07:26:24;;;;;;;3.58;1.30;;;;;;;18.38;47.79;98505.39;1740551;82;27452;-58
2022/05/22 07:28:51;;;;;;;3.45;1.20;;;;;;;18.23;47.52;98497.42;1740757;82;25737;-59
2022/05/22 07:31:22;;;;;;;3.20;1.07;;;;;;;18.11;47.78;98493.67;1740787;82;25586;-58
2022/05/22 07:33:50;;;;;;;2.55;1.17;;;;;;;18.15;48.87;98490.37;1740745;81;26638;-57
2022/05/22 07:36:17;;;;;;;6.50;1.30;;;;;;;18.23;48.70;98493.26;1736479;82;25843;-57
2022/05/22 07:38:45;;;;;;;4.30;1.20;;;;;;;18.16;47.93;98492.53;1740719;82;27413;-57
2022/05/22 07:41:12;;;;;;;4.17;1.15;;;;;;;18.05;48.87;98494.51;1740690;82;25440;-58
2022/05/22 07:43:40;;;;;;;2.27;1.20;;;;;;;17.94;48.36;98486.59;1740836;81;25753;-57
2022/05/22 07:46:09;;;;;;;3.77;1.37;;;;;;;17.78;48.84;98494.42;1740940;82;26374;-57
2022/05/22 07:48:36;;;;;;;2.80;1.50;;;;;;;17.70;48.89;98494.66;1740928;82;25452;-57
2022/05/22 07:51:04;;;;;;;3.22;1.37;;;;;;;17.77;49.29;98487.86;1740776;82;27649;-58
2022/05/22 07:53:32;;;;;;;2.65;1.47;;;;;;;17.78;49.69;98494.42;1740688;82;25862;-58
2022/05/22 07:55:58;;;;;;;1.90;1.05;;;;;;;17.84;49.23;98497.69;1740963;81;25662;-58
2022/05/22 07:58:28;;;;;;;4.55;1.30;;;;;;;17.85;48.80;98490.19;1740630;82;25828;-58
2022/05/22 08:00:56;;;;;;;3.70;1.10;;;;;;;17.92;48.07;98490.31;1740893;81;25433;-58
2022/05/22 08:03:23;;;;;;;3.55;1.20;;;;;;;17.80;47.75;98479.63;1740945;82;27304;-57
2022/05/22 08:05:51;;;;;;;3.17;1.30;;;;;;;17.93;49.21;98477.47;1740439;81;25443;-58
2022/05/22 08:08:18;;;;;;;2.80;1.20;;;;;;;18.26;49.17;98485.01;1740785;81;25460;-58
2022/05/22 08:10:45;;;;;;;4.08;1.00;;;;;;;18.42;48.46;98481.28;1740609;82;25747;-59
2022/05/22 08:13:14;;;;;;;2.33;1.05;;;;;;;18.63;47.48;98473.91;1743541;82;25709;-58
2022/05/22 08:15:42;;;;;;;2.47;0.90;;;;;;;18.92;47.10;98474.33;1748887;81;27847;-60
2022/05/22 08:18:11;;;;;;;6.87;0.90;;;;;;;19.33;46.04;98472.89;1748459;82;25539;-57
2022/05/22 08:20:41;;;;;;;2.42;0.85;;;;;;;19.38;44.12;98472.57;1748518;82;25678;-58
2022/05/22 08:23:12;;;;;;;2.10;0.80;;;;;;;19.53;44.56;98472.73;1748857;82;25874;-61
2022/05/22 08:25:39;;;;;;;2.52;0.82;;;;;;;19.39;44.34;98473.36;1748025;82;25415;-62
2022/05/22 08:28:06;;;;;;;2.72;0.80;;;;;;;19.46;44.13;98469.87;1748804;82;27471;-61
2022/05/22 08:30:33;;;;;;;2.67;0.82;;;;;;;19.65;43.99;98468.31;1745487;81;25611;-58
2022/05/22 08:33:02;;;;;;;1.80;0.80;;;;;;;19.75;44.46;98474.38;1748086;82;25677;-58
2022/05/22 08:35:36;;;;;;;2.45;0.82;;;;;;;19.67;43.75;98473.48;1748650;82;25856;-62
2022/05/22 08:38:04;;;;;;;3.33;0.93;;;;;;;19.64;43.77;98461.16;1748764;81;25783;-58
2022/05/22 08:40:42;;;;;;;4.05;0.80;;;;;;;19.79;44.24;98462.11;1748786;81;27373;-61
2022/05/22 08:43:14;;;;;;;3.30;1.10;;;;;;;20.20;43.43;98455.56;1747765;82;25649;-58
2022/05/22 08:45:47;;;;;;;4.22;1.07;;;;;;;20.28;42.75;98457.20;1747301;81;25620;-58
2022/05/22 08:48:31;;;;;;;4.83;1.00;;;;;;;20.30;43.87;98439.55;1747343;82;26368;-58
2022/05/22 08:51:00;;;;;;;3.25;1.15;;;;;;;20.55;44.25;98440.30;1738105;82;25680;-58
2022/05/22 08:53:35;;;;;;;3.85;1.00;;;;;;;21.06;44.15;98446.22;1748781;82;27387;-58
2022/05/22 08:59:23;;;;;;;2.45;0.95;;;;;;;21.51;41.64;98440.44;1748747;82;25636;-60
2022/05/22 09:02:10;;;;;;;2.40;1.00;;;;;;;21.15;41.19;98437.49;1743600;82;25895;-59
2022/05/22 09:04:51;;;;;;;3.45;0.90;;;;;;;20.74;40.86;98434.27;1748374;82;25471;-60
2022/05/22 09:07:46;;;;;;;1.80;0.78;;;;;;;20.89;40.69;98440.13;1748481;82;27386;-58
2022/05/22 09:10:24;;;;;;;1.77;1.00;;;;;;;21.46;41.04;98440.80;1748647;81;25605;-59
2022/05/22 09:13:17;;;;;;;2.65;0.80;;;;;;;21.85;40.54;98426.00;1742632;82;25679;-59
2022/05/22 09:16:01;;;;;;;2.37;0.82;;;;;;;21.94;39.83;98417.42;1740724;82;26458;-59
2022/05/22 09:18:38;;;;;;;2.02;1.15;;;;;;;22.03;39.24;98403.10;1740545;82;25448;-60
2022/05/22 09:21:34;;;;;;;1.62;0.88;;;;;;;22.04;39.61;98418.64;1740508;82;27395;-63
2022/05/22 09:24:04;;;;;;;2.72;1.10;;;;;;;21.77;39.86;98414.84;1740651;82;25595;-60
2022/05/22 09:27:04;;;;;;;3.08;0.90;;;;;;;21.61;40.45;98410.17;1741059;82;25591;-63
2022/05/22 09:30:15;;;;;;;2.43;0.80;;;;;;;21.45;39.87;98405.77;1741088;82;25910;-61
2022/05/22 09:33:12;;;;;;;2.37;0.90;;;;;;;21.21;39.19;98403.89;1736630;82;25496;-63
2022/05/22 09:36:08;;;;;;;2.50;0.78;;;;;;;21.34;38.63;98408.52;1741158;82;28239;-62
2022/05/22 09:38:46;;;;;;;2.02;0.80;;;;;;;21.91;38.58;98401.48;1740516;81;25724;-58
2022/05/22 09:41:46;;;;;;;1.37;0.60;;;;;;;22.03;38.43;98394.73;1740661;82;25703;-58
2022/05/22 09:44:33;;;;;;;1.92;0.80;;;;;;;21.67;37.82;98408.59;1741058;82;26423;-58
2022/05/22 09:47:37;;;;;;;2.45;1.00;;;;;;;21.43;36.99;98415.92;1744671;82;25689;-58
2022/05/22 09:50:35;;;;;;;2.40;1.15;;;;;;;21.05;37.46;98411.20;1692343;84;28660;-59
2022/05/22 09:53:27;;;;;;;3.80;1.10;;;;;;;20.71;38.37;98408.59;1604079;88;25936;-61
2022/05/22 09:55:59;;;;;;;1.55;1.10;;;;;;;20.48;38.64;98413.23;1604149;89;25841;-59
2022/05/22 09:58:46;;;;;;;3.62;1.22;;;;;;;20.21;39.24;98415.42;1603068;88;25757;-58
2022/05/22 10:01:28;;;;;;;2.25;1.05;;;;;;;19.98;40.29;98422.77;1613651;86;25781;-59
2022/05/22 10:04:31;;;;;;;2.62;1.50;;;;;;;19.69;40.36;98416.33;1639962;86;27600;-59
2022/05/22 10:07:36;;;;;;;3.80;1.60;;;;;;;19.39;40.46;98415.00;1635702;86;26354;-58
2022/05/22 10:10:38;;;;;;;2.50;0.82;;;;;;;19.61;41.82;98411.08;1616574;88;25750;-61
2022/05/22 10:13:15;;;;;;;2.42;0.90;;;;;;;19.73;41.11;98409.42;1616313;88;26605;-58
2022/05/22 10:15:50;;;;;;;2.70;1.70;;;;;;;19.84;41.24;98413.70;1627375;87;25853;-59
2022/05/22 10:18:30;;;;;;;1.35;0.82;;;;;;;20.11;40.42;98410.77;1627089;88;28791;-60
2022/05/22 10:21:25;;;;;;;2.62;0.98;;;;;;;20.71;40.18;98409.41;1627205;88;25950;-58
2022/05/22 10:24:20;;;;;;;2.70;1.52;;;;;;;20.89;38.80;98406.71;1619959;86;36140;-60
2022/05/22 10:27:07;;;;;;;2.95;1.22;;;;;;;21.21;38.87;98414.25;1658627;85;26588;-58
2022/05/22 10:30:01;;;;;;;2.55;1.40;;;;;;;21.27;38.72;98409.90;1668980;85;25730;-62
2022/05/22 10:32:33;;;;;;;2.83;1.00;;;;;;;21.11;38.68;98413.81;1684915;85;28162;-59
2022/05/22 10:35:14;;;;;;;3.60;1.10;;;;;;;21.14;39.38;98408.85;1684934;84;25702;-61
2022/05/22 10:37:51;;;;;;;3.15;1.17;;;;;;;21.22;38.92;98408.29;1685340;84;25603;-61
2022/05/22 10:40:23;;;;;;;2.98;1.00;;;;;;;21.42;38.10;98404.55;1685252;84;26572;-58
2022/05/22 10:42:54;;;;;;;2.83;1.30;;;;;;;21.35;39.15;98405.12;1685239;84;25497;-58
2022/05/22 10:45:34;;;;;;;3.00;0.90;;;;;;;21.42;37.93;98403.16;1684350;84;27487;-58
2022/05/22 10:48:19;;;;;;;2.60;1.02;;;;;;;21.48;38.14;98401.39;1685080;85;25664;-58
2022/05/22 10:51:05;;;;;;;3.35;1.15;;;;;;;21.68;37.76;98393.47;1677513;85;25670;-60
2022/05/22 10:53:39;;;;;;;2.75;0.90;;;;;;;21.94;37.28;98404.87;1685432;85;25720;-60
2022/05/22 10:56:26;;;;;;;1.55;0.80;;;;;;;21.96;37.29;98396.72;1685316;85;25664;-59
2022/05/22 10:59:00;;;;;;;3.80;1.10;;;;;;;21.61;37.72;98406.80;1685093;84;26866;-59
2022/05/22 11:01:31;;;;;;;2.05;1.00;;;;;;;21.34;37.37;98418.86;1685079;84;25671;-59
2022/05/22 11:04:09;;;;;;;2.30;0.90;;;;;;;21.11;37.71;98409.63;1683207;84;25909;-58
2022/05/22 11:07:00;;;;;;;2.20;0.72;;;;;;;20.88;37.73;98410.70;1682125;84;25810;-58
2022/05/22 11:09:50;;;;;;;2.05;1.10;;;;;;;20.75;38.48;98427.53;1685473;84;25715;-58
2022/05/22 11:12:24;;;;;;;5.47;1.10;;;;;;;20.62;38.65;98416.72;1685000;85;28013;-59
2022/05/22 11:14:50;;;;;;;2.77;1.10;;;;;;;20.64;39.20;98414.94;1693796;84;27059;-58
2022/05/22 11:17:22;;;;;;;1.87;0.98;;;;;;;21.01;38.92;98409.78;1699908;84;25489;-62
2022/05/22 11:19:54;;;;;;;2.12;1.30;;;;;;;21.67;37.03;98413.58;1700206;84;26327;-60
2022/05/22 11:22:31;;;;;;;2.62;1.10;;;;;;;21.50;36.91;98408.77;1707277;83;25741;-58
2022/05/22 11:25:18;;;;;;;4.12;1.90;;;;;;;21.54;37.77;98407.59;1696645;84;27297;-57
2022/05/22 11:27:53;;;;;;;2.47;1.20;;;;;;;21.61;37.68;98410.97;1698770;84;25702;-57
2022/05/22 11:30:44;;;;;;;2.15;0.90;;;;;;;21.90;37.96;98406.06;1732719;81;26142;-58
2022/05/22 11:33:46;;;;;;;2.85;0.95;;;;;;;22.33;36.51;98403.09;1753502;81;27849;-58
2022/05/22 11:36:47;;;;;;;4.75;1.00;;;;;;;22.25;35.79;98404.47;1728570;81;25726;-57
2022/05/22 11:39:30;;;;;;;1.72;0.80;;;;;;;22.29;35.74;98398.90;1722371;83;27599;-57
2022/05/22 11:42:20;;;;;;;4.00;1.00;;;;;;;22.94;36.53;98400.77;1721662;83;25763;-58
2022/05/22 11:45:12;;;;;;;3.72;0.95;;;;;;;23.11;35.38;98399.73;1606404;89;25785;-58
2022/05/22 11:48:05;;;;;;;2.05;0.80;;;;;;;22.72;33.68;98391.08;1607774;89;25726;-60
2022/05/22 11:50:52;;;;;;;2.27;0.90;;;;;;;22.46;34.29;98399.27;1607138;89;25821;-58
2022/05/22 11:53:49;;;;;;;2.67;1.00;;;;;;;22.12;34.27;98404.09;1607288;89;27421;-57
2022/05/22 11:56:36;;;;;;;1.92;0.90;;;;;;;22.01;34.17;98399.09;1607322;89;25776;-58
2022/05/22 11:59:32;;;;;;;1.55;1.00;;;;;;;22.10;35.07;98404.30;1606981;89;25740;-57
2022/05/22 12:02:11;;;;;;;1.90;0.90;;;;;;;21.90;34.74;98405.47;1607313;89;25777;-58
2022/05/22 12:05:13;;;;;;;3.50;1.02;;;;;;;22.10;34.78;98409.88;1606881;89;26582;-60
2022/05/22 12:08:04;;;;;;;1.75;0.90;;;;;;;22.10;34.78;98405.70;1607183;89;25922;-62
2022/05/22 12:10:52;;;;;;;1.20;0.90;;;;;;;22.10;34.42;98400.12;1604181;89;25767;-57